Terminal Aerodrome Forecast
Issued by NWS

Home | Current Version | Previous Version | Text Only | Print | Product List | Glossary On
Versions: 1 2 3 4 5 6 7 8 9 10 11 12 13 14 15 16 17 18 19 20 21 22 23 24 25 26 27 28 29 30 31 32 33 34 35
000
FTUS44 KLIX 290500
TAFHUM
TAF
KHUM 290538Z 2906/3006 01007KT P6SM OVC005
     FM290900 01009KT P6SM OVC070
     FM291100 01009KT P6SM OVC008
     FM291700 36006KT P6SM BKN025=

USA.gov is the U.S. government's official web portal to all federal, state and local government web resources and services.